sensor_id;sensor_type;location;lat;lon;timestamp;pressure;altitude;pressure_sealevel;temperature;humidity
3464;BME280;3551;41.578;24.706;2023-07-13T00:00:36;91713.72;;;21.54;81.19
3464;BME280;3551;41.578;24.706;2023-07-13T00:03:03;91718.09;;;21.60;81.16
3464;BME280;3551;41.578;24.706;2023-07-13T00:05:29;91708.69;;;21.52;81.51
3464;BME280;3551;41.578;24.706;2023-07-13T00:07:57;91705.84;;;21.56;81.11
3464;BME280;3551;41.578;24.706;2023-07-13T00:10:23;91700.53;;;21.52;81.36
3464;BME280;3551;41.578;24.706;2023-07-13T00:12:51;91703.38;;;21.49;81.16
3464;BME280;3551;41.578;24.706;2023-07-13T00:15:25;91694.78;;;21.50;81.40
3464;BME280;3551;41.578;24.706;2023-07-13T00:17:54;91704.78;;;21.53;81.54
3464;BME280;3551;41.578;24.706;2023-07-13T00:20:21;91700.66;;;21.49;81.44
3464;BME280;3551;41.578;24.706;2023-07-13T00:22:50;91701.38;;;21.40;81.50
3464;BME280;3551;41.578;24.706;2023-07-13T00:25:18;91694.16;;;21.46;80.98
3464;BME280;3551;41.578;24.706;2023-07-13T00:27:46;91697.19;;;21.48;80.97
3464;BME280;3551;41.578;24.706;2023-07-13T00:30:14;91694.75;;;21.41;81.11
3464;BME280;3551;41.578;24.706;2023-07-13T00:32:40;91691.72;;;21.39;81.45
3464;BME280;3551;41.578;24.706;2023-07-13T00:35:09;91691.38;;;21.37;81.43
3464;BME280;3551;41.578;24.706;2023-07-13T00:37:35;91690.06;;;21.42;81.32
3464;BME280;3551;41.578;24.706;2023-07-13T00:40:02;91685.59;;;21.26;81.81
3464;BME280;3551;41.578;24.706;2023-07-13T00:42:29;91688.47;;;21.31;81.87
3464;BME280;3551;41.578;24.706;2023-07-13T00:45:06;91689.72;;;21.30;82.25
3464;BME280;3551;41.578;24.706;2023-07-13T00:47:33;91682.44;;;21.27;82.04
3464;BME280;3551;41.578;24.706;2023-07-13T00:50:00;91680.09;;;21.17;83.20
3464;BME280;3551;41.578;24.706;2023-07-13T00:52:29;91676.66;;;21.25;82.49
3464;BME280;3551;41.578;24.706;2023-07-13T00:54:56;91683.13;;;20.97;83.73
3464;BME280;3551;41.578;24.706;2023-07-13T00:57:24;91685.72;;;21.01;83.39
3464;BME280;3551;41.578;24.706;2023-07-13T00:59:52;91678.50;;;21.28;81.53
3464;BME280;3551;41.578;24.706;2023-07-13T01:02:20;91678.13;;;21.17;82.44
3464;BME280;3551;41.578;24.706;2023-07-13T01:04:47;91678.78;;;21.21;82.41
3464;BME280;3551;41.578;24.706;2023-07-13T01:07:14;91677.25;;;21.20;82.09
3464;BME280;3551;41.578;24.706;2023-07-13T01:09:42;91678.72;;;21.12;82.68
3464;BME280;3551;41.578;24.706;2023-07-13T01:12:10;91672.72;;;21.05;83.12
3464;BME280;3551;41.578;24.706;2023-07-13T01:14:36;91677.03;;;20.93;83.56
3464;BME280;3551;41.578;24.706;2023-07-13T01:17:04;91671.28;;;20.91;83.92
3464;BME280;3551;41.578;24.706;2023-07-13T01:19:32;91676.06;;;20.78;84.58
3464;BME280;3551;41.578;24.706;2023-07-13T01:22:03;91666.00;;;20.66;85.19
3464;BME280;3551;41.578;24.706;2023-07-13T01:24:29;91667.91;;;20.78;84.81
3464;BME280;3551;41.578;24.706;2023-07-13T01:26:56;91670.22;;;20.89;84.36
3464;BME280;3551;41.578;24.706;2023-07-13T01:29:23;91666.63;;;20.92;84.06
3464;BME280;3551;41.578;24.706;2023-07-13T01:31:49;91662.25;;;20.72;84.89
3464;BME280;3551;41.578;24.706;2023-07-13T01:34:16;91671.09;;;20.64;84.96
3464;BME280;3551;41.578;24.706;2023-07-13T01:36:43;91663.53;;;20.59;84.73
3464;BME280;3551;41.578;24.706;2023-07-13T01:39:11;91664.47;;;20.65;85.28
3464;BME280;3551;41.578;24.706;2023-07-13T01:41:38;91666.06;;;20.75;85.04
3464;BME280;3551;41.578;24.706;2023-07-13T01:44:04;91664.09;;;20.75;85.05
3464;BME280;3551;41.578;24.706;2023-07-13T01:46:31;91663.34;;;20.75;85.19
3464;BME280;3551;41.578;24.706;2023-07-13T01:48:58;91665.91;;;20.78;84.77
3464;BME280;3551;41.578;24.706;2023-07-13T01:51:25;91658.97;;;20.77;85.01
3464;BME280;3551;41.578;24.706;2023-07-13T01:53:51;91661.31;;;20.88;84.00
3464;BME280;3551;41.578;24.706;2023-07-13T01:56:19;91660.94;;;20.77;84.29
3464;BME280;3551;41.578;24.706;2023-07-13T01:58:46;91673.00;;;20.76;84.65
3464;BME280;3551;41.578;24.706;2023-07-13T02:01:13;91668.38;;;20.64;84.99
3464;BME280;3551;41.578;24.706;2023-07-13T02:03:40;91670.88;;;20.71;85.18
3464;BME280;3551;41.578;24.706;2023-07-13T02:06:07;91674.22;;;20.75;84.65
3464;BME280;3551;41.578;24.706;2023-07-13T02:08:33;91664.03;;;20.66;85.01
3464;BME280;3551;41.578;24.706;2023-07-13T02:11:02;91669.53;;;20.54;85.14
3464;BME280;3551;41.578;24.706;2023-07-13T02:13:30;91669.72;;;20.59;84.72
3464;BME280;3551;41.578;24.706;2023-07-13T02:15:56;91674.19;;;20.53;85.32
3464;BME280;3551;41.578;24.706;2023-07-13T02:18:23;91673.09;;;20.63;84.98
3464;BME280;3551;41.578;24.706;2023-07-13T02:20:50;91674.06;;;20.78;84.22
3464;BME280;3551;41.578;24.706;2023-07-13T02:23:16;91664.53;;;20.52;85.01
3464;BME280;3551;41.578;24.706;2023-07-13T02:25:43;91678.69;;;20.47;85.05
3464;BME280;3551;41.578;24.706;2023-07-13T02:28:10;91665.06;;;20.26;86.53
3464;BME280;3551;41.578;24.706;2023-07-13T02:30:38;91673.88;;;20.51;84.66
3464;BME280;3551;41.578;24.706;2023-07-13T02:33:05;91671.66;;;20.59;84.59
3464;BME280;3551;41.578;24.706;2023-07-13T02:35:32;91673.00;;;20.54;85.16
3464;BME280;3551;41.578;24.706;2023-07-13T02:37:58;91670.25;;;20.33;85.98
3464;BME280;3551;41.578;24.706;2023-07-13T02:40:25;91666.84;;;20.41;85.80
3464;BME280;3551;41.578;24.706;2023-07-13T02:42:52;91669.00;;;20.46;85.12
3464;BME280;3551;41.578;24.706;2023-07-13T02:45:18;91667.53;;;20.33;85.49
3464;BME280;3551;41.578;24.706;2023-07-13T02:47:46;91677.22;;;20.34;85.15
3464;BME280;3551;41.578;24.706;2023-07-13T02:50:13;91673.81;;;20.42;84.83
3464;BME280;3551;41.578;24.706;2023-07-13T02:52:39;91675.56;;;20.36;84.69
3464;BME280;3551;41.578;24.706;2023-07-13T02:55:06;91670.25;;;20.20;85.55
3464;BME280;3551;41.578;24.706;2023-07-13T02:57:33;91679.06;;;20.24;85.08
3464;BME280;3551;41.578;24.706;2023-07-13T03:00:00;91680.13;;;20.39;83.78
3464;BME280;3551;41.578;24.706;2023-07-13T03:02:30;91679.16;;;20.20;84.66
3464;BME280;3551;41.578;24.706;2023-07-13T03:04:58;91680.09;;;20.05;85.04
3464;BME280;3551;41.578;24.706;2023-07-13T03:07:25;91675.19;;;20.00;85.53
3464;BME280;3551;41.578;24.706;2023-07-13T03:09:53;91678.97;;;20.15;85.13
3464;BME280;3551;41.578;24.706;2023-07-13T03:12:20;91677.44;;;20.27;84.67
3464;BME280;3551;41.578;24.706;2023-07-13T03:14:47;91678.41;;;20.33;84.58
3464;BME280;3551;41.578;24.706;2023-07-13T03:17:13;91682.53;;;20.37;84.36
3464;BME280;3551;41.578;24.706;2023-07-13T03:19:40;91685.25;;;20.25;84.21
3464;BME280;3551;41.578;24.706;2023-07-13T03:22:08;91681.47;;;20.09;84.82
3464;BME280;3551;41.578;24.706;2023-07-13T03:24:35;91683.72;;;20.23;84.13
3464;BME280;3551;41.578;24.706;2023-07-13T03:27:03;91688.38;;;20.23;84.03
3464;BME280;3551;41.578;24.706;2023-07-13T03:29:31;91689.81;;;20.15;84.82
3464;BME280;3551;41.578;24.706;2023-07-13T03:31:57;91680.25;;;20.23;84.88
3464;BME280;3551;41.578;24.706;2023-07-13T03:34:24;91689.56;;;20.35;84.14
3464;BME280;3551;41.578;24.706;2023-07-13T03:36:53;91685.66;;;20.36;84.39
3464;BME280;3551;41.578;24.706;2023-07-13T03:39:21;91690.31;;;20.48;83.51
3464;BME280;3551;41.578;24.706;2023-07-13T03:41:48;91686.34;;;20.27;83.95
3464;BME280;3551;41.578;24.706;2023-07-13T03:44:15;91687.31;;;20.33;83.88
3464;BME280;3551;41.578;24.706;2023-07-13T03:46:42;91694.28;;;20.34;83.63
3464;BME280;3551;41.578;24.706;2023-07-13T03:49:09;91683.53;;;20.31;83.13
3464;BME280;3551;41.578;24.706;2023-07-13T03:51:35;91689.72;;;20.18;84.10
3464;BME280;3551;41.578;24.706;2023-07-13T03:54:02;91687.53;;;20.26;83.80
3464;BME280;3551;41.578;24.706;2023-07-13T03:56:30;91696.31;;;20.43;83.81
3464;BME280;3551;41.578;24.706;2023-07-13T03:58:58;91703.72;;;20.64;82.74
3464;BME280;3551;41.578;24.706;2023-07-13T04:01:25;91698.63;;;20.66;82.14
3464;BME280;3551;41.578;24.706;2023-07-13T04:03:52;91704.34;;;20.68;82.35
3464;BME280;3551;41.578;24.706;2023-07-13T04:06:19;91696.59;;;20.57;82.98
3464;BME280;3551;41.578;24.706;2023-07-13T04:08:47;91706.44;;;20.64;82.64
3464;BME280;3551;41.578;24.706;2023-07-13T04:11:15;91695.06;;;20.56;83.08
3464;BME280;3551;41.578;24.706;2023-07-13T04:13:43;91701.50;;;20.50;83.76
3464;BME280;3551;41.578;24.706;2023-07-13T04:16:10;91697.59;;;20.72;83.06
3464;BME280;3551;41.578;24.706;2023-07-13T04:18:37;91695.13;;;20.65;82.69
3464;BME280;3551;41.578;24.706;2023-07-13T04:21:04;91700.38;;;20.82;82.59
3464;BME280;3551;41.578;24.706;2023-07-13T04:23:30;91706.22;;;21.36;80.67
3464;BME280;3551;41.578;24.706;2023-07-13T04:25:57;91702.63;;;21.79;78.72
3464;BME280;3551;41.578;24.706;2023-07-13T04:28:24;91708.69;;;22.23;76.24
3464;BME280;3551;41.578;24.706;2023-07-13T04:30:52;91708.16;;;22.73;73.57
3464;BME280;3551;41.578;24.706;2023-07-13T04:33:19;91702.38;;;23.17;71.77
3464;BME280;3551;41.578;24.706;2023-07-13T04:35:47;91710.31;;;23.66;70.59
3464;BME280;3551;41.578;24.706;2023-07-13T04:38:14;91706.06;;;24.16;68.95
3464;BME280;3551;41.578;24.706;2023-07-13T04:40:42;91708.94;;;24.69;67.72
3464;BME280;3551;41.578;24.706;2023-07-13T04:43:09;91705.34;;;24.86;66.05
3464;BME280;3551;41.578;24.706;2023-07-13T04:45:36;91716.53;;;25.12;64.18
3464;BME280;3551;41.578;24.706;2023-07-13T04:48:04;91712.78;;;25.24;64.17
3464;BME280;3551;41.578;24.706;2023-07-13T04:50:31;91716.38;;;25.45;63.02
3464;BME280;3551;41.578;24.706;2023-07-13T04:52:58;91719.59;;;25.58;61.92
3464;BME280;3551;41.578;24.706;2023-07-13T04:55:25;91724.41;;;25.63;63.31
3464;BME280;3551;41.578;24.706;2023-07-13T04:57:55;91725.84;;;25.88;62.66
3464;BME280;3551;41.578;24.706;2023-07-13T05:00:23;91723.81;;;26.32;61.40
3464;BME280;3551;41.578;24.706;2023-07-13T05:02:50;91719.63;;;26.37;59.43
3464;BME280;3551;41.578;24.706;2023-07-13T05:05:20;91728.13;;;26.39;60.35
3464;BME280;3551;41.578;24.706;2023-07-13T05:07:48;91727.69;;;26.60;59.66
3464;BME280;3551;41.578;24.706;2023-07-13T05:10:14;91732.31;;;26.89;58.75
3464;BME280;3551;41.578;24.706;2023-07-13T05:12:41;91732.44;;;27.20;57.67
3464;BME280;3551;41.578;24.706;2023-07-13T05:15:08;91734.72;;;27.42;56.79
3464;BME280;3551;41.578;24.706;2023-07-13T05:17:35;91730.09;;;27.54;56.02
3464;BME280;3551;41.578;24.706;2023-07-13T05:20:04;91731.00;;;27.71;56.42
3464;BME280;3551;41.578;24.706;2023-07-13T05:22:32;91727.44;;;27.65;56.21
3464;BME280;3551;41.578;24.706;2023-07-13T05:25:00;91728.34;;;27.82;55.75
3464;BME280;3551;41.578;24.706;2023-07-13T05:27:27;91719.06;;;28.05;53.12
3464;BME280;3551;41.578;24.706;2023-07-13T05:29:53;91721.53;;;28.03;53.82
3464;BME280;3551;41.578;24.706;2023-07-13T05:32:20;91716.69;;;28.18;54.42
3464;BME280;3551;41.578;24.706;2023-07-13T05:34:47;91721.50;;;28.29;53.78
3464;BME280;3551;41.578;24.706;2023-07-13T05:37:20;91721.16;;;28.53;53.21
3464;BME280;3551;41.578;24.706;2023-07-13T05:39:49;91715.81;;;28.75;52.91
3464;BME280;3551;41.578;24.706;2023-07-13T05:42:16;91730.94;;;29.01;51.08
3464;BME280;3551;41.578;24.706;2023-07-13T05:44:42;91729.81;;;29.25;49.90
3464;BME280;3551;41.578;24.706;2023-07-13T05:47:09;91724.16;;;29.50;48.45
3464;BME280;3551;41.578;24.706;2023-07-13T05:49:36;91725.91;;;29.48;48.97
3464;BME280;3551;41.578;24.706;2023-07-13T05:52:02;91728.88;;;29.33;50.94
3464;BME280;3551;41.578;24.706;2023-07-13T05:54:29;91717.81;;;29.28;49.75
3464;BME280;3551;41.578;24.706;2023-07-13T05:56:57;91716.34;;;29.38;50.18
3464;BME280;3551;41.578;24.706;2023-07-13T05:59:24;91718.88;;;29.47;49.71
3464;BME280;3551;41.578;24.706;2023-07-13T06:01:51;91721.41;;;29.50;50.20
3464;BME280;3551;41.578;24.706;2023-07-13T06:04:18;91711.97;;;29.85;49.89
3464;BME280;3551;41.578;24.706;2023-07-13T06:06:45;91723.75;;;30.07;46.91
3464;BME280;3551;41.578;24.706;2023-07-13T06:09:12;91723.75;;;30.19;48.51
3464;BME280;3551;41.578;24.706;2023-07-13T06:11:39;91722.50;;;30.42;47.02
3464;BME280;3551;41.578;24.706;2023-07-13T06:14:10;91720.75;;;30.39;45.47
3464;BME280;3551;41.578;24.706;2023-07-13T06:16:37;91725.53;;;30.55;46.06
3464;BME280;3551;41.578;24.706;2023-07-13T06:19:03;91721.19;;;30.82;46.01
3464;BME280;3551;41.578;24.706;2023-07-13T06:21:30;91718.44;;;30.82;45.67
3464;BME280;3551;41.578;24.706;2023-07-13T06:23:57;91715.38;;;31.02;45.62
3464;BME280;3551;41.578;24.706;2023-07-13T06:26:24;91712.84;;;31.09;43.15
3464;BME280;3551;41.578;24.706;2023-07-13T06:28:50;91709.59;;;31.11;43.95
3464;BME280;3551;41.578;24.706;2023-07-13T06:31:18;91710.97;;;31.40;43.23
3464;BME280;3551;41.578;24.706;2023-07-13T06:33:45;91705.47;;;31.34;42.86
3464;BME280;3551;41.578;24.706;2023-07-13T06:36:12;91705.09;;;31.60;42.23
3464;BME280;3551;41.578;24.706;2023-07-13T06:38:39;91700.22;;;31.77;41.51
3464;BME280;3551;41.578;24.706;2023-07-13T06:41:06;91706.03;;;31.68;41.28
3464;BME280;3551;41.578;24.706;2023-07-13T06:43:33;91701.69;;;31.84;41.33
3464;BME280;3551;41.578;24.706;2023-07-13T06:45:59;91695.03;;;31.98;42.46
3464;BME280;3551;41.578;24.706;2023-07-13T06:48:28;91694.25;;;32.03;41.92
3464;BME280;3551;41.578;24.706;2023-07-13T06:50:58;91691.56;;;32.27;41.16
3464;BME280;3551;41.578;24.706;2023-07-13T06:53:25;91699.34;;;32.58;41.13
3464;BME280;3551;41.578;24.706;2023-07-13T06:55:51;91696.44;;;32.75;40.22
3464;BME280;3551;41.578;24.706;2023-07-13T06:58:21;91697.06;;;32.62;40.96
3464;BME280;3551;41.578;24.706;2023-07-13T07:00:49;91692.59;;;32.78;39.24
3464;BME280;3551;41.578;24.706;2023-07-13T07:03:16;91694.97;;;32.93;39.14
3464;BME280;3551;41.578;24.706;2023-07-13T07:05:45;91693.78;;;33.12;38.78
3464;BME280;3551;41.578;24.706;2023-07-13T07:08:12;91691.63;;;33.24;39.20
3464;BME280;3551;41.578;24.706;2023-07-13T07:10:42;91697.94;;;33.43;37.98
3464;BME280;3551;41.578;24.706;2023-07-13T07:13:10;91700.44;;;33.65;38.50
3464;BME280;3551;41.578;24.706;2023-07-13T07:15:38;91693.78;;;33.74;38.34
3464;BME280;3551;41.578;24.706;2023-07-13T07:18:11;91698.88;;;33.70;37.90
3464;BME280;3551;41.578;24.706;2023-07-13T07:20:40;91702.78;;;33.80;37.59
3464;BME280;3551;41.578;24.706;2023-07-13T07:23:10;91695.25;;;33.93;37.62
3464;BME280;3551;41.578;24.706;2023-07-13T07:25:37;91689.03;;;33.87;37.36
3464;BME280;3551;41.578;24.706;2023-07-13T07:28:07;91688.84;;;33.99;37.42
3464;BME280;3551;41.578;24.706;2023-07-13T07:30:52;91680.53;;;34.17;39.72
3464;BME280;3551;41.578;24.706;2023-07-13T07:33:37;91683.88;;;34.29;40.57
3464;BME280;3551;41.578;24.706;2023-07-13T07:36:05;91685.84;;;34.47;40.15
3464;BME280;3551;41.578;24.706;2023-07-13T07:38:55;91683.66;;;34.59;37.56
3464;BME280;3551;41.578;24.706;2023-07-13T07:41:25;91685.09;;;34.46;36.67
3464;BME280;3551;41.578;24.706;2023-07-13T07:44:06;91676.63;;;34.39;36.59
3464;BME280;3551;41.578;24.706;2023-07-13T07:46:38;91677.44;;;34.21;35.85
3464;BME280;3551;41.578;24.706;2023-07-13T07:49:19;91672.91;;;34.49;35.95
3464;BME280;3551;41.578;24.706;2023-07-13T07:52:00;91682.06;;;34.76;33.46
3464;BME280;3551;41.578;24.706;2023-07-13T07:54:28;91678.13;;;34.85;33.77
3464;BME280;3551;41.578;24.706;2023-07-13T07:56:55;91678.69;;;35.10;32.22
3464;BME280;3551;41.578;24.706;2023-07-13T07:59:22;91676.41;;;35.21;32.06
3464;BME280;3551;41.578;24.706;2023-07-13T08:01:49;91682.16;;;35.49;31.60
3464;BME280;3551;41.578;24.706;2023-07-13T08:04:16;91681.00;;;35.45;31.50
3464;BME280;3551;41.578;24.706;2023-07-13T08:06:43;91690.97;;;35.27;29.69
3464;BME280;3551;41.578;24.706;2023-07-13T08:09:10;91688.91;;;35.54;32.12
3464;BME280;3551;41.578;24.706;2023-07-13T08:11:45;91687.28;;;35.72;29.13
3464;BME280;3551;41.578;24.706;2023-07-13T08:14:11;91689.31;;;35.84;29.50
3464;BME280;3551;41.578;24.706;2023-07-13T08:16:38;91696.59;;;35.74;28.28
3464;BME280;3551;41.578;24.706;2023-07-13T08:19:05;91688.91;;;35.67;28.69
3464;BME280;3551;41.578;24.706;2023-07-13T08:21:32;91686.34;;;35.69;28.18
3464;BME280;3551;41.578;24.706;2023-07-13T08:24:02;91686.03;;;35.46;29.40
3464;BME280;3551;41.578;24.706;2023-07-13T08:26:30;91682.72;;;35.48;28.30
3464;BME280;3551;41.578;24.706;2023-07-13T08:28:58;91684.41;;;35.51;27.85
3464;BME280;3551;41.578;24.706;2023-07-13T08:31:25;91690.59;;;35.70;27.27
3464;BME280;3551;41.578;24.706;2023-07-13T08:33:51;91694.00;;;35.89;29.33
3464;BME280;3551;41.578;24.706;2023-07-13T08:36:18;91688.16;;;35.67;28.79
3464;BME280;3551;41.578;24.706;2023-07-13T08:38:45;91688.22;;;35.87;29.92
3464;BME280;3551;41.578;24.706;2023-07-13T08:41:12;91689.03;;;35.95;30.10
3464;BME280;3551;41.578;24.706;2023-07-13T08:43:39;91696.34;;;35.85;30.38
3464;BME280;3551;41.578;24.706;2023-07-13T08:46:11;91694.19;;;35.91;29.57
3464;BME280;3551;41.578;24.706;2023-07-13T08:48:41;91693.69;;;35.80;27.98
3464;BME280;3551;41.578;24.706;2023-07-13T08:51:11;91694.94;;;35.92;28.95
3464;BME280;3551;41.578;24.706;2023-07-13T08:53:42;91684.06;;;35.81;29.04
3464;BME280;3551;41.578;24.706;2023-07-13T08:56:14;91694.13;;;35.84;28.69
3464;BME280;3551;41.578;24.706;2023-07-13T08:58:43;91686.97;;;35.75;28.01
3464;BME280;3551;41.578;24.706;2023-07-13T09:01:15;91695.44;;;35.56;28.77
3464;BME280;3551;41.578;24.706;2023-07-13T09:03:46;91693.84;;;35.61;28.40
3464;BME280;3551;41.578;24.706;2023-07-13T09:06:16;91689.47;;;35.39;27.98
3464;BME280;3551;41.578;24.706;2023-07-13T09:08:46;91692.25;;;35.26;27.77
3464;BME280;3551;41.578;24.706;2023-07-13T09:11:23;91680.38;;;34.99;28.93
3464;BME280;3551;41.578;24.706;2023-07-13T09:13:54;91687.84;;;35.04;28.82
3464;BME280;3551;41.578;24.706;2023-07-13T09:16:27;91678.00;;;34.77;29.13
3464;BME280;3551;41.578;24.706;2023-07-13T09:18:54;91674.28;;;34.88;29.40
3464;BME280;3551;41.578;24.706;2023-07-13T09:21:31;91678.00;;;35.03;30.50
3464;BME280;3551;41.578;24.706;2023-07-13T09:23:59;91675.34;;;35.24;30.42
3464;BME280;3551;41.578;24.706;2023-07-13T09:26:28;91680.16;;;35.37;29.41
3464;BME280;3551;41.578;24.706;2023-07-13T09:28:59;91674.03;;;35.38;31.12
3464;BME280;3551;41.578;24.706;2023-07-13T09:31:31;91672.56;;;35.37;29.77
3464;BME280;3551;41.578;24.706;2023-07-13T09:33:59;91674.47;;;34.90;29.52
3464;BME280;3551;41.578;24.706;2023-07-13T09:36:29;91668.94;;;35.16;30.31
3464;BME280;3551;41.578;24.706;2023-07-13T09:39:04;91658.78;;;35.19;29.50
3464;BME280;3551;41.578;24.706;2023-07-13T09:41:37;91664.78;;;35.23;29.51
3464;BME280;3551;41.578;24.706;2023-07-13T09:44:08;91664.88;;;35.17;28.96
3464;BME280;3551;41.578;24.706;2023-07-13T09:46:38;91652.56;;;35.13;27.56
3464;BME280;3551;41.578;24.706;2023-07-13T09:49:06;91653.41;;;34.94;29.42
3464;BME280;3551;41.578;24.706;2023-07-13T09:51:34;91656.50;;;35.04;30.77
3464;BME280;3551;41.578;24.706;2023-07-13T09:54:02;91647.66;;;35.19;29.42
3464;BME280;3551;41.578;24.706;2023-07-13T09:56:29;91646.47;;;35.01;31.31
3464;BME280;3551;41.578;24.706;2023-07-13T09:58:56;91639.13;;;34.45;30.21
3464;BME280;3551;41.578;24.706;2023-07-13T10:01:33;91635.50;;;34.50;31.22
3464;BME280;3551;41.578;24.706;2023-07-13T10:04:01;91627.72;;;34.49;30.77
3464;BME280;3551;41.578;24.706;2023-07-13T10:06:39;91632.31;;;34.46;30.66
3464;BME280;3551;41.578;24.706;2023-07-13T10:09:08;91630.22;;;34.79;32.02
3464;BME280;3551;41.578;24.706;2023-07-13T10:11:36;91623.75;;;34.44;30.79
3464;BME280;3551;41.578;24.706;2023-07-13T10:14:09;91612.59;;;33.86;31.67
3464;BME280;3551;41.578;24.706;2023-07-13T10:16:37;91616.75;;;34.12;32.52
3464;BME280;3551;41.578;24.706;2023-07-13T10:19:09;91617.84;;;34.22;33.15
3464;BME280;3551;41.578;24.706;2023-07-13T10:21:38;91610.03;;;34.20;32.56
3464;BME280;3551;41.578;24.706;2023-07-13T10:24:09;91613.56;;;34.21;32.43
3464;BME280;3551;41.578;24.706;2023-07-13T10:26:39;91616.41;;;34.15;31.44
3464;BME280;3551;41.578;24.706;2023-07-13T10:29:11;91608.03;;;34.21;30.63
3464;BME280;3551;41.578;24.706;2023-07-13T10:31:40;91606.22;;;34.36;31.84
3464;BME280;3551;41.578;24.706;2023-07-13T10:34:10;91596.81;;;34.39;33.65
3464;BME280;3551;41.578;24.706;2023-07-13T10:36:40;91601.72;;;34.33;33.23
3464;BME280;3551;41.578;24.706;2023-07-13T10:39:09;91600.41;;;33.76;32.33
3464;BME280;3551;41.578;24.706;2023-07-13T10:41:43;91595.81;;;33.79;31.73
3464;BME280;3551;41.578;24.706;2023-07-13T10:44:14;91601.63;;;33.94;32.89
3464;BME280;3551;41.578;24.706;2023-07-13T10:46:43;91603.84;;;34.14;34.14
3464;BME280;3551;41.578;24.706;2023-07-13T10:49:14;91597.63;;;34.21;31.33
3464;BME280;3551;41.578;24.706;2023-07-13T10:51:42;91601.19;;;34.35;32.50
3464;BME280;3551;41.578;24.706;2023-07-13T10:54:17;91594.78;;;33.95;32.90
3464;BME280;3551;41.578;24.706;2023-07-13T10:56:44;91588.06;;;34.04;31.05
3464;BME280;3551;41.578;24.706;2023-07-13T10:59:12;91579.94;;;33.61;31.01
3464;BME280;3551;41.578;24.706;2023-07-13T11:01:48;91582.41;;;33.46;32.40
3464;BME280;3551;41.578;24.706;2023-07-13T11:04:17;91584.75;;;33.42;32.44
3464;BME280;3551;41.578;24.706;2023-07-13T11:06:46;91573.66;;;33.60;31.57
3464;BME280;3551;41.578;24.706;2023-07-13T11:09:19;91574.53;;;33.50;32.15
3464;BME280;3551;41.578;24.706;2023-07-13T11:11:47;91577.81;;;33.48;33.27
3464;BME280;3551;41.578;24.706;2023-07-13T11:14:28;91569.91;;;33.39;33.60
3464;BME280;3551;41.578;24.706;2023-07-13T11:16:56;91571.88;;;33.25;32.88
3464;BME280;3551;41.578;24.706;2023-07-13T11:22:16;91570.97;;;33.36;32.18
3464;BME280;3551;41.578;24.706;2023-07-13T11:24:50;91573.75;;;33.36;32.35
3464;BME280;3551;41.578;24.706;2023-07-13T11:30:08;91570.03;;;32.91;33.49
3464;BME280;3551;41.578;24.706;2023-07-13T11:32:35;91569.22;;;32.77;32.75
3464;BME280;3551;41.578;24.706;2023-07-13T11:35:02;91570.41;;;32.81;31.86
3464;BME280;3551;41.578;24.706;2023-07-13T11:37:31;91561.72;;;32.72;31.61
3464;BME280;3551;41.578;24.706;2023-07-13T11:39:58;91568.88;;;32.62;33.44
3464;BME280;3551;41.578;24.706;2023-07-13T11:42:25;91562.16;;;32.57;32.26
3464;BME280;3551;41.578;24.706;2023-07-13T11:44:52;91555.88;;;32.57;31.38
3464;BME280;3551;41.578;24.706;2023-07-13T11:47:22;91558.78;;;32.64;31.87
3464;BME280;3551;41.578;24.706;2023-07-13T11:49:49;91562.66;;;32.56;32.24
3464;BME280;3551;41.578;24.706;2023-07-13T11:52:18;91561.72;;;32.48;31.98
3464;BME280;3551;41.578;24.706;2023-07-13T11:54:48;91568.13;;;32.61;31.72
3464;BME280;3551;41.578;24.706;2023-07-13T11:57:21;91563.13;;;32.36;30.50
3464;BME280;3551;41.578;24.706;2023-07-13T11:59:50;91560.59;;;32.13;34.00
3464;BME280;3551;41.578;24.706;2023-07-13T12:02:20;91545.03;;;32.10;31.34
3464;BME280;3551;41.578;24.706;2023-07-13T12:04:52;91545.88;;;31.94;32.15
3464;BME280;3551;41.578;24.706;2023-07-13T12:07:19;91540.69;;;31.85;33.13
3464;BME280;3551;41.578;24.706;2023-07-13T12:09:47;91555.41;;;31.99;31.92
3464;BME280;3551;41.578;24.706;2023-07-13T12:12:17;91552.28;;;32.13;32.62
3464;BME280;3551;41.578;24.706;2023-07-13T12:14:44;91554.75;;;32.17;32.94
3464;BME280;3551;41.578;24.706;2023-07-13T12:17:11;91547.47;;;32.14;33.25
3464;BME280;3551;41.578;24.706;2023-07-13T12:19:40;91535.31;;;31.98;33.53
3464;BME280;3551;41.578;24.706;2023-07-13T12:22:08;91542.59;;;31.71;33.78
3464;BME280;3551;41.578;24.706;2023-07-13T12:24:36;91541.22;;;31.54;33.90
3464;BME280;3551;41.578;24.706;2023-07-13T12:27:05;91537.28;;;31.38;34.15
3464;BME280;3551;41.578;24.706;2023-07-13T12:29:33;91541.34;;;31.37;34.48
3464;BME280;3551;41.578;24.706;2023-07-13T12:31:59;91533.31;;;31.34;34.89
3464;BME280;3551;41.578;24.706;2023-07-13T12:34:27;91527.47;;;31.43;35.03
3464;BME280;3551;41.578;24.706;2023-07-13T12:36:54;91535.00;;;31.48;33.80
3464;BME280;3551;41.578;24.706;2023-07-13T12:39:22;91540.53;;;31.48;34.92
3464;BME280;3551;41.578;24.706;2023-07-13T12:41:49;91530.13;;;31.24;34.05
3464;BME280;3551;41.578;24.706;2023-07-13T12:44:18;91526.63;;;31.18;33.95
3464;BME280;3551;41.578;24.706;2023-07-13T12:46:56;91537.38;;;31.27;34.48
3464;BME280;3551;41.578;24.706;2023-07-13T12:49:24;91528.53;;;31.34;36.08
3464;BME280;3551;41.578;24.706;2023-07-13T12:51:55;91530.06;;;31.30;34.95
3464;BME280;3551;41.578;24.706;2023-07-13T12:54:22;91524.78;;;31.32;36.07
3464;BME280;3551;41.578;24.706;2023-07-13T12:56:50;91520.66;;;31.14;36.78
3464;BME280;3551;41.578;24.706;2023-07-13T12:59:20;91525.84;;;30.77;38.28
3464;BME280;3551;41.578;24.706;2023-07-13T13:01:47;91521.63;;;30.70;37.62
3464;BME280;3551;41.578;24.706;2023-07-13T13:04:16;91521.09;;;30.77;38.83
3464;BME280;3551;41.578;24.706;2023-07-13T13:06:46;91517.78;;;30.84;39.00
3464;BME280;3551;41.578;24.706;2023-07-13T13:09:13;91518.00;;;30.92;38.32
3464;BME280;3551;41.578;24.706;2023-07-13T13:11:41;91510.19;;;31.01;38.39
3464;BME280;3551;41.578;24.706;2023-07-13T13:14:08;91520.75;;;30.97;38.57
3464;BME280;3551;41.578;24.706;2023-07-13T13:16:42;91514.19;;;31.00;39.77
3464;BME280;3551;41.578;24.706;2023-07-13T13:19:12;91519.56;;;30.82;39.41
3464;BME280;3551;41.578;24.706;2023-07-13T13:21:39;91522.25;;;30.93;39.99